Time;durP1;ratioP1;P1;durP2;ratioP2;P2;SDS_P1;SDS_P2;PMS_P1;PMS_P2;Temp;Humidity;BMP_temperature;BMP_pressure;BME280_temperature;BME280_humidity;BME280_pressure;Samples;Min_cycle;Max_cycle;Signal;HPM_P1;HPM_P2
2022/01/22 00:00:56;;;;;;;15.82;2.83;;;8.20;91.30;;;;;;6009566;23;90574;-68
2022/01/22 00:03:23;;;;;;;18.65;2.58;;;8.20;91.60;;;;;;6010230;23;88668;-72
2022/01/22 00:05:50;;;;;;;15.00;2.88;;;8.30;91.30;;;;;;5984406;23;89689;-72
2022/01/22 00:08:17;;;;;;;13.43;2.85;;;8.20;91.30;;;;;;6010410;23;88114;-68
2022/01/22 00:10:45;;;;;;;17.25;3.08;;;8.20;91.20;;;;;;6010286;23;88096;-72
2022/01/22 00:15:46;;;;;;;17.30;2.40;;;8.10;91.50;;;;;;5985198;23;89661;-72
2022/01/22 00:18:13;;;;;;;16.58;3.53;;;8.10;91.60;;;;;;5984854;23;88885;-72
2022/01/22 00:20:40;;;;;;;10.45;3.05;;;8.10;91.70;;;;;;6010467;23;88173;-72
2022/01/22 00:23:08;;;;;;;10.07;2.00;;;8.10;91.50;;;;;;5984367;23;89323;-68
2022/01/22 00:25:36;;;;;;;17.38;3.10;;;8.10;91.70;;;;;;6010314;23;89204;-68
2022/01/22 00:28:03;;;;;;;17.85;3.13;;;8.10;91.90;;;;;;6010347;23;88746;-72
2022/01/22 00:30:31;;;;;;;11.50;2.47;;;8.10;91.70;;;;;;6010088;23;89253;-68
2022/01/22 00:32:58;;;;;;;9.10;2.13;;;8.10;91.70;;;;;;6010040;23;88816;-68
2022/01/22 00:35:26;;;;;;;12.75;2.53;;;8.00;91.90;;;;;;5984449;23;89500;-72
2022/01/22 00:37:53;;;;;;;13.35;2.35;;;8.00;92.00;;;;;;6009987;23;87888;-72
2022/01/22 00:40:22;;;;;;;10.32;1.92;;;8.00;92.00;;;;;;5984404;23;88185;-68
2022/01/22 00:42:49;;;;;;;10.68;2.30;;;8.00;92.20;;;;;;6009988;23;88564;-68
2022/01/22 00:45:18;;;;;;;11.95;2.30;;;8.00;92.30;;;;;;5984226;23;89524;-68
2022/01/22 00:47:47;;;;;;;7.88;1.90;;;8.00;92.20;;;;;;6009634;23;88724;-68
2022/01/22 00:50:16;;;;;;;6.57;1.88;;;8.00;92.20;;;;;;6009759;23;88155;-68
2022/01/22 00:52:45;;;;;;;9.82;2.20;;;8.10;92.10;;;;;;6009905;23;88570;-72
2022/01/22 00:55:12;;;;;;;6.20;2.08;;;8.20;92.10;;;;;;6009627;23;88394;-68
2022/01/22 00:57:40;;;;;;;6.93;2.20;;;8.20;91.70;;;;;;5983982;23;89241;-68
2022/01/22 01:00:11;;;;;;;7.20;1.98;;;8.20;91.60;;;;;;6009375;23;89112;-68
2022/01/22 01:02:39;;;;;;;6.40;1.23;;;8.20;91.60;;;;;;5984413;23;89734;-72
2022/01/22 01:05:08;;;;;;;9.07;2.08;;;8.20;91.40;;;;;;6009872;23;88433;-72
2022/01/22 01:07:37;;;;;;;8.82;1.65;;;8.20;91.70;;;;;;5984714;23;88996;-72
2022/01/22 01:10:06;;;;;;;5.18;1.00;;;8.20;91.70;;;;;;5984213;23;91178;-68
2022/01/22 01:12:36;;;;;;;7.03;1.60;;;8.20;91.90;;;;;;5960234;23;92235;-68
2022/01/22 01:17:58;;;;;;;6.97;1.38;;;8.10;91.90;;;;;;5984568;23;89020;-71
2022/01/22 01:34:16;;;;;;;6.15;1.40;;;8.00;92.90;;;;;;5984088;23;91142;-68
2022/01/22 01:36:44;;;;;;;6.85;1.90;;;8.00;93.00;;;;;;5984422;23;89620;-69
2022/01/22 01:39:17;;;;;;;7.82;1.40;;;8.00;93.10;;;;;;5983271;23;88714;-69
2022/01/22 01:41:53;;;;;;;6.57;1.52;;;8.10;92.70;;;;;;5984286;23;91017;-69
2022/01/22 01:44:21;;;;;;;4.80;1.00;;;8.10;92.90;;;;;;5983439;23;90637;-69
2022/01/22 01:46:57;;;;;;;;;;;8.10;92.80;;;;;;6010009;23;88356;-73
2022/01/22 01:49:28;;;;;;;5.32;0.90;;;8.00;92.70;;;;;;5985816;23;88085;-69
2022/01/22 01:51:58;;;;;;;3.28;1.58;;;8.00;93.10;;;;;;5983868;23;90867;-69
2022/01/22 01:54:46;;;;;;;3.90;1.10;;;7.90;93.10;;;;;;6033100;23;91647;-69
2022/01/22 02:00:00;;;;;;;4.05;1.02;;;7.90;93.00;;;;;;5985418;23;89086;-68
2022/01/22 02:02:44;;;;;;;5.00;0.93;;;7.90;93.20;;;;;;5989571;23;89114;-69
2022/01/22 02:05:16;;;;;;;8.18;1.80;;;7.90;92.90;;;;;;6010344;23;90389;-69
2022/01/22 02:07:44;;;;;;;6.55;1.20;;;7.90;94.10;;;;;;5985354;23;91835;-69
2022/01/22 02:10:21;;;;;;;3.25;1.30;;;7.80;94.20;;;;;;6033261;23;89115;-69
2022/01/22 02:23:55;;;;;;;10.27;1.27;;;7.80;92.90;;;;;;5985846;23;90877;-68
2022/01/22 02:26:22;;;;;;;8.15;1.50;;;7.80;92.80;;;;;;5984640;23;91123;-69
2022/01/22 02:28:52;;;;;;;9.75;2.05;;;7.80;92.70;;;;;;5985127;23;96982;-69
2022/01/22 02:31:41;;;;;;;6.20;1.58;;;7.80;92.60;;;;;;5984460;23;88829;-69
2022/01/22 02:34:21;;;;;;;6.22;1.85;;;7.90;92.60;;;;;;5985124;23;89617;-69
2022/01/22 02:39:32;;;;;;;5.40;1.30;;;7.90;92.20;;;;;;5985067;23;89710;-69
2022/01/22 02:41:59;;;;;;;5.80;1.73;;;7.90;92.20;;;;;;6010843;23;88010;-69
2022/01/22 02:44:43;;;;;;;7.50;1.20;;;7.80;92.20;;;;;;5984825;23;90810;-69
2022/01/22 02:47:14;;;;;;;8.52;1.38;;;7.80;92.10;;;;;;5984590;23;90586;-69
2022/01/22 02:49:42;;;;;;;4.20;1.45;;;7.90;92.00;;;;;;6011088;23;88404;-69
2022/01/22 02:52:11;;;;;;;4.70;1.13;;;7.90;92.00;;;;;;5984748;23;89268;-69
2022/01/22 02:54:41;;;;;;;3.17;1.20;;;7.90;92.10;;;;;;5985049;23;90132;-68
2022/01/22 02:57:09;;;;;;;3.75;1.20;;;7.90;92.00;;;;;;6009969;23;89294;-68
2022/01/22 02:59:39;;;;;;;4.85;1.17;;;7.90;92.10;;;;;;5984548;23;91339;-69
2022/01/22 03:02:14;;;;;;;5.18;1.15;;;8.00;92.10;;;;;;5985196;23;89161;-69
2022/01/22 03:04:43;;;;;;;7.78;1.27;;;7.90;92.10;;;;;;5984535;23;90468;-69
2022/01/22 03:07:10;;;;;;;4.68;1.63;;;7.90;92.40;;;;;;5984721;23;90876;-69
2022/01/22 03:09:43;;;;;;;5.35;1.50;;;7.90;92.40;;;;;;5984959;23;90937;-69
2022/01/22 03:21:02;;;;;;;6.60;1.65;;;7.80;92.40;;;;;;5984903;23;89688;-67
2022/01/22 03:29:06;;;;;;;6.30;1.98;;;7.80;92.50;;;;;;5985153;23;91315;-69
2022/01/22 03:31:33;;;;;;;5.93;1.63;;;7.90;92.60;;;;;;5984604;23;91200;-69
2022/01/22 03:34:00;;;;;;;9.65;2.08;;;7.90;92.40;;;;;;5984765;23;89162;-69
2022/01/22 03:36:32;;;;;;;5.50;1.45;;;7.90;92.30;;;;;;5984428;23;90837;-69
2022/01/22 03:39:05;;;;;;;9.55;2.05;;;7.90;92.20;;;;;;5984933;23;91136;-69
2022/01/22 03:41:33;;;;;;;8.00;1.70;;;7.80;92.20;;;;;;5985012;23;90914;-69
2022/01/22 03:44:00;;;;;;;4.15;1.45;;;7.90;92.40;;;;;;5984705;23;88019;-69
2022/01/22 03:46:27;;;;;;;9.85;1.52;;;7.90;92.10;;;;;;6009920;23;89321;-69
2022/01/22 03:48:56;;;;;;;4.47;1.70;;;7.90;92.10;;;;;;5984171;23;90482;-69
2022/01/22 03:51:23;;;;;;;5.70;1.40;;;7.90;92.00;;;;;;5984576;23;91895;-69
2022/01/22 03:53:50;;;;;;;9.38;1.73;;;7.90;92.00;;;;;;6032959;23;89094;-69
2022/01/22 03:56:18;;;;;;;2.95;1.45;;;7.90;91.90;;;;;;5984586;23;90917;-69
2022/01/22 03:58:53;;;;;;;5.03;1.35;;;7.90;91.80;;;;;;6010511;23;88549;-69
2022/01/22 04:04:40;;;;;;;9.38;1.58;;;7.90;91.90;;;;;;5980153;23;89156;-69
2022/01/22 04:09:40;;;;;;;2.78;1.10;;;7.90;91.60;;;;;;5980230;23;91229;-69
2022/01/22 04:12:09;;;;;;;5.05;1.40;;;7.80;91.60;;;;;;5980831;23;90959;-69
2022/01/22 04:14:45;;;;;;;5.93;1.50;;;7.80;91.70;;;;;;5979311;23;88841;-69
2022/01/22 04:25:30;;;;;;;3.22;1.10;;;7.80;91.70;;;;;;5964561;23;88073;-69
2022/01/22 04:27:57;;;;;;;4.78;1.30;;;7.80;91.90;;;;;;5980225;23;89814;-69
2022/01/22 04:30:27;;;;;;;3.33;1.08;;;7.80;91.80;;;;;;5979863;23;89931;-69
2022/01/22 04:32:54;;;;;;;7.88;1.70;;;7.80;91.90;;;;;;5980273;23;89769;-69
2022/01/22 04:35:22;;;;;;;3.47;1.38;;;7.80;92.20;;;;;;5981537;23;87908;-69
2022/01/22 04:37:50;;;;;;;5.57;2.00;;;7.80;92.20;;;;;;5981961;23;88253;-69
2022/01/22 04:40:17;;;;;;;9.13;1.55;;;7.80;92.20;;;;;;5979709;23;91966;-69
2022/01/22 04:42:44;;;;;;;8.40;1.50;;;7.80;92.20;;;;;;5981393;23;89056;-69
2022/01/22 04:55:55;;;;;;;3.58;1.05;;;7.80;91.80;;;;;;5979996;23;88938;-69
2022/01/22 04:58:22;;;;;;;4.32;1.02;;;7.80;91.60;;;;;;5980374;23;90346;-69
2022/01/22 05:00:49;;;;;;;3.53;1.20;;;7.80;91.50;;;;;;5952538;23;89844;-69
2022/01/22 05:03:34;;;;;;;3.03;1.00;;;7.80;91.30;;;;;;5980009;23;88175;-69
2022/01/22 05:06:36;;;;;;;3.13;0.98;;;7.80;91.30;;;;;;5979184;23;89060;-69
2022/01/22 05:09:21;;;;;;;4.80;0.82;;;7.80;91.40;;;;;;5981645;23;88042;-69
2022/01/22 05:11:57;;;;;;;5.10;1.00;;;7.80;91.30;;;;;;5957774;23;90739;-69
2022/01/22 05:14:25;;;;;;;4.65;1.38;;;7.80;91.70;;;;;;5979719;23;90447;-69
2022/01/22 05:16:56;;;;;;;1.33;0.80;;;7.70;91.80;;;;;;5979704;23;88397;-69
2022/01/22 05:19:34;;;;;;;2.72;1.05;;;7.70;91.60;;;;;;5979531;23;88378;-69
2022/01/22 05:22:12;;;;;;;6.82;1.33;;;7.70;91.80;;;;;;5979742;23;91084;-69
2022/01/22 05:24:44;;;;;;;1.63;0.95;;;7.70;91.60;;;;;;5979833;23;91098;-69
2022/01/22 05:27:31;;;;;;;3.75;1.02;;;7.70;91.70;;;;;;5982160;23;87959;-69
2022/01/22 05:33:31;;;;;;;3.70;1.13;;;7.70;91.80;;;;;;5980722;23;91968;-69
2022/01/22 05:39:11;;;;;;;4.55;1.50;;;7.70;92.20;;;;;;5982860;23;88025;-69
2022/01/22 05:41:40;;;;;;;5.80;1.70;;;7.70;92.20;;;;;;5982647;23;88329;-69
2022/01/22 05:44:07;;;;;;;2.33;1.30;;;7.70;92.30;;;;;;5980778;23;91440;-69
2022/01/22 05:46:35;;;;;;;6.78;1.42;;;7.70;92.20;;;;;;5980570;23;89538;-69
2022/01/22 05:49:03;;;;;;;5.10;1.15;;;7.70;92.30;;;;;;5980896;23;89047;-69
2022/01/22 05:51:31;;;;;;;7.57;1.50;;;7.70;92.30;;;;;;5981135;23;90932;-69
2022/01/22 05:59:39;;;;;;;6.65;1.60;;;7.80;92.20;;;;;;5980631;23;89545;-69
2022/01/22 06:02:11;;;;;;;5.78;1.17;;;7.80;92.30;;;;;;5981104;23;90736;-69
2022/01/22 06:04:43;;;;;;;5.38;1.60;;;7.80;92.20;;;;;;5980586;23;90961;-69
2022/01/22 06:07:13;;;;;;;6.90;1.98;;;7.80;92.20;;;;;;5980447;23;90584;-69
2022/01/22 06:09:54;;;;;;;3.17;1.50;;;7.80;92.10;;;;;;5957058;23;89105;-69
2022/01/22 06:12:41;;;;;;;5.82;2.50;;;7.80;92.20;;;;;;6028840;23;90804;-69
2022/01/22 06:15:09;;;;;;;10.30;3.78;;;7.90;92.10;;;;;;5980960;23;90976;-69
2022/01/22 06:17:51;;;;;;;5.90;2.78;;;7.90;92.10;;;;;;5980750;23;89628;-69
2022/01/22 06:20:18;;;;;;;14.68;3.53;;;7.90;91.80;;;;;;5980680;23;89105;-69
2022/01/22 06:22:46;;;;;;;3.97;2.40;;;8.00;92.10;;;;;;5980337;23;90879;-69
2022/01/22 06:25:13;;;;;;;4.57;3.45;;;8.00;91.90;;;;;;5979799;23;90557;-69
2022/01/22 06:27:40;;;;;;;6.32;3.45;;;8.00;91.90;;;;;;5980265;23;91922;-70
2022/01/22 06:30:08;;;;;;;4.95;2.28;;;8.00;91.60;;;;;;5980652;23;88198;-69
2022/01/22 06:32:42;;;;;;;7.75;2.28;;;8.00;91.60;;;;;;5980157;23;90209;-69
2022/01/22 06:35:10;;;;;;;5.25;1.70;;;8.00;91.70;;;;;;5957184;23;91030;-69
2022/01/22 06:37:38;;;;;;;5.30;1.90;;;8.00;91.70;;;;;;5979916;23;89605;-69
2022/01/22 06:43:25;;;;;;;4.95;2.03;;;8.00;91.80;;;;;;5980628;23;89238;-69
2022/01/22 06:46:07;;;;;;;7.95;1.73;;;8.00;91.90;;;;;;5980408;23;91185;-69
2022/01/22 06:48:42;;;;;;;9.20;1.88;;;7.90;92.20;;;;;;5958397;23;90692;-69
2022/01/22 06:51:33;;;;;;;10.00;4.07;;;7.90;92.10;;;;;;5979827;23;88710;-70
2022/01/22 06:54:03;;;;;;;9.60;4.78;;;8.00;92.30;;;;;;5979977;23;90952;-69
2022/01/22 06:56:30;;;;;;;11.05;3.83;;;8.00;92.20;;;;;;5980173;23;90977;-69
2022/01/22 06:59:13;;;;;;;9.98;3.60;;;8.10;92.20;;;;;;5980532;23;90934;-69
2022/01/22 07:01:44;;;;;;;10.18;3.22;;;8.10;92.00;;;;;;5979663;23;87985;-69
2022/01/22 07:04:22;;;;;;;9.00;2.83;;;8.10;91.80;;;;;;5980597;23;90800;-69
2022/01/22 07:07:12;;;;;;;7.38;2.75;;;8.10;91.70;;;;;;5977446;23;94131;-69
2022/01/22 07:09:39;;;;;;;5.95;2.05;;;8.20;91.70;;;;;;5977805;23;95443;-69
2022/01/22 07:12:08;;;;;;;6.78;2.10;;;8.10;91.20;;;;;;5977805;23;92547;-69
2022/01/22 07:14:35;;;;;;;7.85;2.28;;;8.00;91.30;;;;;;5979635;23;92413;-69
2022/01/22 07:17:03;;;;;;;4.28;1.83;;;8.00;91.20;;;;;;5976359;23;97862;-69
2022/01/22 07:19:40;;;;;;;5.00;1.88;;;8.00;91.20;;;;;;5977560;23;97339;-69
2022/01/22 07:22:40;;;;;;;11.30;1.90;;;7.90;91.30;;;;;;5978101;23;92496;-69
2022/01/22 07:25:27;;;;;;;4.72;1.70;;;7.90;91.50;;;;;;5979646;23;92369;-69
2022/01/22 07:27:58;;;;;;;6.50;1.92;;;7.90;91.70;;;;;;5977082;23;95240;-69
2022/01/22 07:30:27;;;;;;;9.40;2.00;;;7.90;91.80;;;;;;5977318;23;95193;-69
2022/01/22 07:32:54;;;;;;;4.78;1.40;;;7.90;92.10;;;;;;5953952;23;92466;-69
2022/01/22 07:35:21;;;;;;;5.80;2.03;;;7.90;92.00;;;;;;5977947;23;91735;-69
2022/01/22 07:38:02;;;;;;;5.38;2.65;;;8.00;92.00;;;;;;5977012;23;93155;-69
2022/01/22 07:40:29;;;;;;;7.70;4.38;;;8.00;91.90;;;;;;5977248;23;95262;-69
2022/01/22 07:43:00;;;;;;;5.78;3.63;;;8.00;92.00;;;;;;6024196;23;94863;-69
2022/01/22 07:45:59;;;;;;;3.28;2.13;;;8.00;91.90;;;;;;5978754;23;92479;-69
2022/01/22 07:48:30;;;;;;;4.03;1.80;;;8.00;92.10;;;;;;6025326;23;95367;-69
2022/01/22 07:51:09;;;;;;;4.13;1.77;;;8.00;92.20;;;;;;5979010;23;92770;-69
2022/01/22 07:53:37;;;;;;;3.40;1.90;;;7.90;91.90;;;;;;5979050;23;92412;-69
2022/01/22 07:56:08;;;;;;;5.05;2.30;;;7.90;91.70;;;;;;5977404;23;93347;-69
2022/01/22 07:58:36;;;;;;;4.30;1.73;;;7.90;91.80;;;;;;5977285;23;94425;-69
2022/01/22 08:01:03;;;;;;;7.32;2.10;;;7.90;91.60;;;;;;5953834;23;95230;-69
2022/01/22 08:03:46;;;;;;;4.43;2.30;;;7.80;91.50;;;;;;5977355;23;92503;-69
2022/01/22 08:06:32;;;;;;;6.47;2.13;;;7.90;91.60;;;;;;5979238;23;92493;-69
2022/01/22 08:09:22;;;;;;;3.38;1.77;;;7.90;91.20;;;;;;5976160;23;96192;-69
2022/01/22 08:12:04;;;;;;;5.47;2.15;;;7.90;91.10;;;;;;5977153;23;96612;-69
2022/01/22 08:14:32;;;;;;;3.38;1.45;;;8.00;90.80;;;;;;5954233;23;92404;-69
2022/01/22 08:16:59;;;;;;;4.68;1.88;;;7.90;90.80;;;;;;5977219;23;92455;-69
2022/01/22 08:19:35;;;;;;;4.45;1.77;;;7.90;90.90;;;;;;5977198;23;95255;-69
2022/01/22 08:22:07;;;;;;;4.10;1.88;;;7.90;91.30;;;;;;5976881;23;92898;-70
2022/01/22 08:25:00;;;;;;;3.90;1.90;;;7.90;91.30;;;;;;5951557;23;92530;-69
2022/01/22 08:29:55;;;;;;;5.88;2.72;;;8.00;91.20;;;;;;5976850;23;94312;-69
2022/01/22 08:37:35;;;;;;;5.90;2.90;;;8.20;91.20;;;;;;5978934;23;92426;-70
2022/01/22 08:40:04;;;;;;;3.97;2.15;;;8.20;91.20;;;;;;5976643;23;95509;-69
2022/01/22 08:42:31;;;;;;;3.03;1.60;;;8.20;90.80;;;;;;5977036;23;93810;-69
2022/01/22 08:44:58;;;;;;;2.08;1.75;;;8.30;90.40;;;;;;5977072;23;92497;-70
2022/01/22 08:47:26;;;;;;;3.10;1.35;;;8.30;90.30;;;;;;5977236;23;93047;-69
2022/01/22 08:49:53;;;;;;;2.90;1.65;;;8.30;90.00;;;;;;5977037;23;95435;-69
2022/01/22 08:52:24;;;;;;;2.40;1.20;;;8.30;90.00;;;;;;5977208;23;94067;-69
2022/01/22 08:54:53;;;;;;;1.80;1.00;;;8.40;89.80;;;;;;5977578;23;92334;-69
2022/01/22 08:57:24;;;;;;;4.18;1.60;;;8.40;89.20;;;;;;5977268;23;92914;-69
2022/01/22 09:00:07;;;;;;;3.08;1.85;;;8.40;89.30;;;;;;5977947;23;97756;-69
2022/01/22 09:02:45;;;;;;;3.10;1.48;;;8.40;89.90;;;;;;5981424;23;96267;-70
2022/01/22 09:05:35;;;;;;;4.55;1.80;;;8.40;89.90;;;;;;5949435;23;93160;-69
2022/01/22 09:08:26;;;;;;;2.95;1.30;;;8.40;90.10;;;;;;5953589;23;92530;-69
2022/01/22 09:11:06;;;;;;;1.67;1.27;;;8.50;90.40;;;;;;5981656;23;95530;-69
2022/01/22 09:13:53;;;;;;;3.40;1.73;;;8.50;90.10;;;;;;6006391;23;92470;-69
2022/01/22 09:16:24;;;;;;;5.00;2.30;;;8.50;90.50;;;;;;5981918;23;92496;-69
2022/01/22 09:18:54;;;;;;;1.95;1.75;;;8.50;90.70;;;;;;5981952;23;91774;-69
2022/01/22 09:21:21;;;;;;;2.42;1.20;;;8.50;90.60;;;;;;5981056;23;95267;-69
2022/01/22 09:23:48;;;;;;;2.17;1.02;;;8.50;90.60;;;;;;5981464;23;95648;-69
2022/01/22 09:26:18;;;;;;;4.43;1.60;;;8.50;90.70;;;;;;6005175;23;94867;-69
2022/01/22 09:28:47;;;;;;;5.47;1.70;;;8.50;90.60;;;;;;5981913;23;92453;-68
2022/01/22 09:31:15;;;;;;;4.28;1.90;;;8.50;90.60;;;;;;5980649;23;95187;-68
2022/01/22 09:33:44;;;;;;;4.90;1.30;;;8.50;90.50;;;;;;5980995;23;94900;-68
2022/01/22 09:36:31;;;;;;;2.47;1.60;;;8.40;90.20;;;;;;6007250;23;92408;-68
2022/01/22 09:39:15;;;;;;;2.28;1.40;;;8.50;90.30;;;;;;5981370;23;92463;-69
2022/01/22 09:42:02;;;;;;;2.05;1.40;;;8.50;90.40;;;;;;5956558;23;92955;-69
2022/01/22 09:44:46;;;;;;;;;;;8.50;90.60;;;;;;5982403;23;95439;-69
2022/01/22 09:47:32;;;;;;;14.25;10.45;;;8.30;90.70;;;;;;6008316;23;92429;-69
2022/01/22 09:50:17;;;;;;;;;;;8.30;91.00;;;;;;5981224;23;92591;-69
2022/01/22 09:53:12;;;;;;;2.35;1.00;;;8.30;90.80;;;;;;5980773;23;97759;-69
2022/01/22 09:56:06;;;;;;;2.25;1.17;;;8.40;90.70;;;;;;5983426;23;94922;-69
2022/01/22 09:59:05;;;;;;;1.00;0.90;;;8.40;90.90;;;;;;5972006;23;92541;-69
2022/01/22 10:01:50;;;;;;;2.30;0.90;;;8.40;90.90;;;;;;6006710;23;92463;-69
2022/01/22 10:04:35;;;;;;;2.17;0.90;;;8.50;90.70;;;;;;5981234;23;95619;-68
2022/01/22 10:07:24;;;;;;;1.90;1.00;;;8.60;90.10;;;;;;5995856;23;92562;-68
2022/01/22 10:10:07;;;;;;;;;;;8.70;90.00;;;;;;5981993;23;92403;-68
2022/01/22 10:12:49;;;;;;;1.05;0.88;;;8.70;89.40;;;;;;6008854;23;91602;-68
2022/01/22 10:15:35;;;;;;;3.28;1.10;;;8.70;89.70;;;;;;6008468;23;92920;-68
2022/01/22 10:18:19;;;;;;;2.72;1.30;;;8.70;89.60;;;;;;5978887;23;94832;-68
2022/01/22 10:20:46;;;;;;;3.05;0.85;;;8.80;89.60;;;;;;5981776;23;95001;-68
2022/01/22 10:23:24;;;;;;;2.80;1.00;;;8.80;89.80;;;;;;6008195;23;92384;-68
2022/01/22 10:26:00;;;;;;;0.82;0.70;;;8.80;90.10;;;;;;5982909;23;94052;-68
2022/01/22 10:28:29;;;;;;;2.28;0.73;;;8.80;89.00;;;;;;6007859;23;92850;-68
2022/01/22 10:31:06;;;;;;;3.92;1.25;;;8.90;90.10;;;;;;6007856;23;92452;-68
2022/01/22 10:34:11;;;;;;;2.63;0.70;;;8.90;89.70;;;;;;5948380;23;92520;-69
2022/01/22 10:37:04;;;;;;;2.70;0.85;;;8.80;90.00;;;;;;5974017;23;92820;-69
2022/01/22 10:39:44;;;;;;;2.70;0.70;;;8.80;90.00;;;;;;6008175;23;93822;-69
2022/01/22 10:42:22;;;;;;;3.13;1.10;;;8.70;89.70;;;;;;5958699;23;92466;-69
2022/01/22 10:44:50;;;;;;;2.35;1.08;;;8.90;89.60;;;;;;6007829;23;92465;-69
2022/01/22 10:47:19;;;;;;;2.17;1.10;;;8.90;89.50;;;;;;6005213;23;109308;-68
2022/01/22 10:49:46;;;;;;;2.90;1.20;;;8.90;89.20;;;;;;6007729;23;95056;-69
2022/01/22 10:52:13;;;;;;;2.85;1.13;;;8.90;89.20;;;;;;6007804;23;92393;-69
2022/01/22 10:54:40;;;;;;;1.80;1.25;;;8.90;89.60;;;;;;6007670;23;92539;-69
2022/01/22 10:57:18;;;;;;;4.95;2.60;;;8.80;89.20;;;;;;5981898;23;95734;-69
2022/01/22 10:59:55;;;;;;;1.17;0.80;;;8.90;90.30;;;;;;5982274;23;93908;-69
2022/01/22 11:02:34;;;;;;;3.55;1.10;;;8.80;89.50;;;;;;5982256;23;92614;-68
2022/01/22 11:05:02;;;;;;;3.28;1.15;;;8.80;88.90;;;;;;6008429;23;91973;-69
2022/01/22 11:07:29;;;;;;;1.92;0.75;;;8.70;88.60;;;;;;5982019;23;93516;-69
2022/01/22 11:10:01;;;;;;;4.95;1.00;;;8.70;88.70;;;;;;6007896;23;93027;-69
2022/01/22 11:12:28;;;;;;;3.47;1.00;;;8.70;89.10;;;;;;6006305;23;94816;-69
2022/01/22 11:14:56;;;;;;;1.42;1.00;;;8.60;89.70;;;;;;5982259;23;92643;-69
2022/01/22 11:17:24;;;;;;;1.92;1.10;;;8.70;89.50;;;;;;5981814;23;94073;-69
2022/01/22 11:19:53;;;;;;;3.83;1.35;;;8.80;89.60;;;;;;5982092;23;94282;-69
2022/01/22 11:22:22;;;;;;;4.68;1.05;;;8.90;89.50;;;;;;6007742;23;92525;-69
2022/01/22 11:24:51;;;;;;;2.85;2.25;;;9.00;89.20;;;;;;5982755;23;92372;-69
2022/01/22 11:27:20;;;;;;;2.17;1.90;;;9.00;87.60;;;;;;6007327;23;92804;-68
2022/01/22 11:29:57;;;;;;;5.20;1.13;;;9.00;87.50;;;;;;6030425;23;93913;-68
2022/01/22 11:32:28;;;;;;;1.13;0.98;;;9.10;87.50;;;;;;6007807;23;92359;-69
2022/01/22 11:35:01;;;;;;;4.35;1.70;;;9.10;87.50;;;;;;6007935;23;92391;-68
2022/01/22 11:37:38;;;;;;;6.78;1.52;;;9.20;87.50;;;;;;6005970;23;95339;-69
2022/01/22 11:40:21;;;;;;;5.05;1.60;;;9.20;86.90;;;;;;6007622;23;95036;-67
2022/01/22 11:42:56;;;;;;;2.88;1.40;;;9.20;87.20;;;;;;6007996;23;92479;-68
2022/01/22 11:45:27;;;;;;;7.07;1.60;;;9.20;87.50;;;;;;5982188;23;92473;-68
2022/01/22 11:48:30;;;;;;;4.18;1.30;;;9.20;86.80;;;;;;6007504;23;93025;-68
2022/01/22 11:51:22;;;;;;;3.10;1.60;;;9.30;86.70;;;;;;5892298;23;93009;-68
2022/01/22 11:53:58;;;;;;;5.90;1.55;;;9.40;87.00;;;;;;6005858;23;92365;-68
2022/01/22 11:56:29;;;;;;;4.80;1.80;;;9.40;86.50;;;;;;5982522;23;92194;-68
2022/01/22 11:58:59;;;;;;;3.28;2.10;;;9.40;86.70;;;;;;5982218;23;93943;-68
2022/01/22 12:01:51;;;;;;;2.88;1.63;;;9.40;86.60;;;;;;6007070;23;92823;-69
2022/01/22 12:04:37;;;;;;;4.68;1.50;;;9.50;86.50;;;;;;5981262;23;94835;-68
2022/01/22 12:07:05;;;;;;;4.78;2.50;;;9.50;86.00;;;;;;6008009;23;92381;-67
2022/01/22 12:09:50;;;;;;;6.78;2.50;;;9.60;86.30;;;;;;6007501;23;92987;-67
2022/01/22 12:15:20;;;;;;;5.18;1.73;;;9.70;86.00;;;;;;6007869;23;92833;-67
2022/01/22 12:17:47;;;;;;;4.00;3.45;;;9.60;85.20;;;;;;6007333;23;92451;-67
2022/01/22 12:23:09;;;;;;;4.63;2.78;;;9.70;86.20;;;;;;6007967;23;92595;-69
2022/01/22 12:25:39;;;;;;;5.22;2.30;;;9.70;86.30;;;;;;6007336;23;92311;-67
2022/01/22 12:28:11;;;;;;;9.20;2.35;;;9.70;85.90;;;;;;6007574;23;92429;-67
2022/01/22 12:30:45;;;;;;;5.00;1.90;;;9.70;86.30;;;;;;5980479;23;95318;-67
2022/01/22 12:33:38;;;;;;;5.00;1.55;;;9.80;86.20;;;;;;5981445;23;98025;-67
2022/01/22 12:36:10;;;;;;;7.13;1.98;;;9.80;85.90;;;;;;5981245;23;92375;-67
2022/01/22 12:41:57;;;;;;;3.72;1.63;;;9.90;85.60;;;;;;6007218;23;93006;-69
2022/01/22 12:44:31;;;;;;;5.97;2.15;;;9.90;85.60;;;;;;5999040;23;92829;-69
2022/01/22 12:47:06;;;;;;;4.03;1.92;;;10.00;85.70;;;;;;6006807;23;92621;-69
2022/01/22 12:49:36;;;;;;;5.30;1.80;;;10.00;85.70;;;;;;6007532;23;92022;-69
2022/01/22 12:52:10;;;;;;;4.88;1.88;;;10.00;85.30;;;;;;6007075;23;93028;-69
2022/01/22 12:54:42;;;;;;;;;;;10.10;85.20;;;;;;5981888;23;95208;-69
2022/01/22 12:57:19;;;;;;;3.50;2.22;;;10.00;85.10;;;;;;6007067;23;94892;-69
2022/01/22 13:00:12;;;;;;;7.88;2.72;;;10.10;85.50;;;;;;5981281;23;92492;-69
2022/01/22 13:02:50;;;;;;;7.28;2.70;;;10.20;85.20;;;;;;6006860;23;94069;-68
2022/01/22 13:05:19;;;;;;;6.07;2.58;;;10.20;85.00;;;;;;6006728;23;92922;-69
2022/01/22 13:08:01;;;;;;;9.05;3.85;;;10.20;84.80;;;;;;6007274;23;92427;-73
2022/01/22 13:11:03;;;;;;;6.47;2.95;;;10.20;85.10;;;;;;5982109;23;92462;-69
2022/01/22 13:13:35;;;;;;;10.85;3.85;;;10.20;85.00;;;;;;6007285;23;93196;-73
2022/01/22 13:16:11;;;;;;;6.57;4.32;;;10.10;84.20;;;;;;6007637;23;92841;-73
2022/01/22 13:19:01;;;;;;;7.78;3.83;;;10.10;84.90;;;;;;6007093;23;92283;-73
2022/01/22 13:21:30;;;;;;;8.85;3.65;;;10.10;85.20;;;;;;6007342;23;92400;-73
2022/01/22 13:24:02;;;;;;;8.80;3.67;;;10.10;85.00;;;;;;5956217;23;96485;-73
2022/01/22 13:26:51;;;;;;;9.75;3.75;;;10.10;84.90;;;;;;6006693;23;95180;-73
2022/01/22 13:29:29;;;;;;;10.55;4.00;;;10.10;84.70;;;;;;6007301;23;92337;-69
2022/01/22 13:32:04;;;;;;;6.43;3.38;;;10.10;84.90;;;;;;6006841;23;92498;-69
2022/01/22 13:34:50;;;;;;;8.90;3.72;;;10.00;84.60;;;;;;5981405;23;94410;-69
2022/01/22 13:40:24;;;;;;;8.45;3.90;;;9.70;86.30;;;;;;6006859;23;92486;-69
2022/01/22 13:48:58;;;;;;;7.05;3.40;;;9.60;86.00;;;;;;5960612;23;92839;-69
2022/01/22 13:51:26;;;;;;;11.27;4.00;;;9.50;85.50;;;;;;5981536;23;95307;-69
2022/01/22 13:53:55;;;;;;;10.10;3.63;;;9.40;85.00;;;;;;6007905;23;92362;-73
2022/01/22 13:56:41;;;;;;;8.25;4.38;;;9.40;85.50;;;;;;6007991;23;92942;-69
2022/01/22 13:59:20;;;;;;;9.95;4.22;;;9.40;85.80;;;;;;5983362;23;92759;-70
2022/01/22 14:04:19;;;;;;;7.75;3.72;;;9.50;85.50;;;;;;6008245;23;92405;-73
2022/01/22 14:06:47;;;;;;;7.60;3.38;;;9.50;85.20;;;;;;6007808;23;92599;-73
2022/01/22 14:09:17;;;;;;;5.38;3.05;;;9.50;85.20;;;;;;6008117;23;92906;-73
2022/01/22 14:12:16;;;;;;;7.22;3.00;;;9.60;85.20;;;;;;5982361;23;92559;-73
2022/01/22 14:14:55;;;;;;;9.18;3.50;;;9.70;85.00;;;;;;5945375;23;92431;-69
2022/01/22 14:17:27;;;;;;;10.10;3.40;;;9.60;84.70;;;;;;6006576;23;95373;-73
2022/01/22 14:20:25;;;;;;;7.65;2.67;;;9.60;84.50;;;;;;6007954;23;96034;-69
2022/01/22 14:22:58;;;;;;;7.80;2.60;;;9.60;84.30;;;;;;5985584;23;92663;-73
2022/01/22 14:25:25;;;;;;;10.50;2.70;;;9.50;84.80;;;;;;6008655;23;92391;-69
2022/01/22 14:28:04;;;;;;;10.68;3.20;;;9.50;84.70;;;;;;6007939;23;93077;-72
2022/01/22 14:30:41;;;;;;;10.13;3.17;;;9.50;84.40;;;;;;5959580;23;94169;-73
2022/01/22 14:33:11;;;;;;;8.32;3.03;;;9.50;84.30;;;;;;6008725;23;92393;-72
2022/01/22 14:35:39;;;;;;;5.85;3.20;;;9.50;84.40;;;;;;6008824;23;91660;-72
2022/01/22 14:38:24;;;;;;;6.75;1.90;;;9.50;84.40;;;;;;6008526;23;93089;-73
2022/01/22 14:46:46;;;;;;;7.55;1.92;;;9.40;84.90;;;;;;5982412;23;93505;-72
2022/01/22 14:49:13;;;;;;;5.13;1.70;;;9.40;84.90;;;;;;6008300;23;93003;-72
2022/01/22 14:51:40;;;;;;;5.93;1.40;;;9.40;84.70;;;;;;6008163;23;93528;-68
2022/01/22 14:54:07;;;;;;;5.18;1.85;;;9.40;84.60;;;;;;5982721;23;92447;-68
2022/01/22 14:56:34;;;;;;;6.20;1.65;;;9.40;85.30;;;;;;6008528;23;92638;-68
2022/01/22 14:59:01;;;;;;;6.65;2.20;;;9.30;85.10;;;;;;6007503;23;92998;-68
2022/01/22 15:01:28;;;;;;;7.30;2.10;;;9.20;85.80;;;;;;5982892;23;93827;-68
2022/01/22 15:03:55;;;;;;;8.10;2.30;;;9.10;85.70;;;;;;6008115;23;92309;-67
2022/01/22 15:06:38;;;;;;;8.38;2.30;;;9.10;85.50;;;;;;6008447;23;92365;-67
2022/01/22 15:09:05;;;;;;;11.15;2.17;;;9.10;86.00;;;;;;6006291;23;95850;-67
2022/01/22 15:11:34;;;;;;;6.22;2.47;;;9.10;86.00;;;;;;6007973;23;95028;-67
2022/01/22 15:14:05;;;;;;;7.57;2.03;;;9.10;85.80;;;;;;5982539;23;92790;-71
2022/01/22 15:16:38;;;;;;;8.55;2.22;;;9.10;85.60;;;;;;6008528;23;92695;-71
2022/01/22 15:19:13;;;;;;;8.90;2.38;;;9.10;85.80;;;;;;6008114;23;93081;-71
2022/01/22 15:21:41;;;;;;;6.68;2.10;;;9.00;85.80;;;;;;6008356;23;92665;-71
2022/01/22 15:24:09;;;;;;;5.90;2.67;;;9.00;85.90;;;;;;6008206;23;92366;-71
2022/01/22 15:26:36;;;;;;;6.30;2.70;;;9.00;85.90;;;;;;6008852;23;91709;-71
2022/01/22 15:29:06;;;;;;;8.02;2.53;;;9.00;86.00;;;;;;5982181;23;94075;-71
2022/01/22 15:31:36;;;;;;;6.85;2.90;;;9.10;85.90;;;;;;6008141;23;92820;-67
2022/01/22 15:37:03;;;;;;;3.60;1.70;;;9.00;85.70;;;;;;6008225;23;92800;-71
2022/01/22 15:39:30;;;;;;;6.70;2.15;;;9.10;85.70;;;;;;5983105;23;93205;-67